sensor_id;sensor_type;location;lat;lon;timestamp;P1;durP1;ratioP1;P2;durP2;ratioP2
55288;SDS011;41154;45.394;5.734;2023-12-28T00:00:47;17.88;;;8.95;;
55288;SDS011;41154;45.394;5.734;2023-12-28T00:03:13;20.15;;;9.88;;
55288;SDS011;41154;45.394;5.734;2023-12-28T00:05:38;14.38;;;8.95;;
55288;SDS011;41154;45.394;5.734;2023-12-28T00:08:07;15.10;;;8.55;;
55288;SDS011;41154;45.394;5.734;2023-12-28T00:10:32;17.73;;;9.88;;
55288;SDS011;41154;45.394;5.734;2023-12-28T00:12:58;18.27;;;8.90;;
55288;SDS011;41154;45.394;5.734;2023-12-28T00:15:23;17.25;;;8.82;;
55288;SDS011;41154;45.394;5.734;2023-12-28T00:17:49;22.05;;;9.13;;
55288;SDS011;41154;45.394;5.734;2023-12-28T00:20:14;20.08;;;8.63;;
55288;SDS011;41154;45.394;5.734;2023-12-28T00:22:40;16.35;;;8.40;;
55288;SDS011;41154;45.394;5.734;2023-12-28T00:25:06;15.90;;;8.48;;
55288;SDS011;41154;45.394;5.734;2023-12-28T00:27:31;13.23;;;8.00;;
55288;SDS011;41154;45.394;5.734;2023-12-28T00:29:59;15.75;;;8.70;;
55288;SDS011;41154;45.394;5.734;2023-12-28T00:32:25;16.55;;;8.38;;
55288;SDS011;41154;45.394;5.734;2023-12-28T00:34:50;15.95;;;9.32;;
55288;SDS011;41154;45.394;5.734;2023-12-28T00:37:16;18.63;;;9.25;;
55288;SDS011;41154;45.394;5.734;2023-12-28T00:39:42;16.75;;;9.18;;
55288;SDS011;41154;45.394;5.734;2023-12-28T00:42:08;14.57;;;9.30;;
55288;SDS011;41154;45.394;5.734;2023-12-28T00:44:33;17.63;;;8.50;;
55288;SDS011;41154;45.394;5.734;2023-12-28T00:46:59;17.67;;;8.43;;
55288;SDS011;41154;45.394;5.734;2023-12-28T00:49:25;14.43;;;8.80;;
55288;SDS011;41154;45.394;5.734;2023-12-28T00:51:51;12.45;;;6.00;;
55288;SDS011;41154;45.394;5.734;2023-12-28T00:54:16;17.25;;;8.80;;
55288;SDS011;41154;45.394;5.734;2023-12-28T00:56:42;15.15;;;8.55;;
55288;SDS011;41154;45.394;5.734;2023-12-28T00:59:07;13.77;;;7.95;;
55288;SDS011;41154;45.394;5.734;2023-12-28T01:01:33;18.65;;;8.43;;
55288;SDS011;41154;45.394;5.734;2023-12-28T01:03:58;13.80;;;7.82;;
55288;SDS011;41154;45.394;5.734;2023-12-28T01:06:24;17.13;;;8.48;;
55288;SDS011;41154;45.394;5.734;2023-12-28T01:08:55;13.30;;;7.72;;
55288;SDS011;41154;45.394;5.734;2023-12-28T01:11:21;14.23;;;7.45;;
55288;SDS011;41154;45.394;5.734;2023-12-28T01:13:46;13.38;;;7.97;;
55288;SDS011;41154;45.394;5.734;2023-12-28T01:16:12;13.07;;;8.27;;
55288;SDS011;41154;45.394;5.734;2023-12-28T01:18:38;16.17;;;8.90;;
55288;SDS011;41154;45.394;5.734;2023-12-28T01:21:03;14.90;;;8.75;;
55288;SDS011;41154;45.394;5.734;2023-12-28T01:23:29;16.08;;;8.68;;
55288;SDS011;41154;45.394;5.734;2023-12-28T01:25:55;14.45;;;8.80;;
55288;SDS011;41154;45.394;5.734;2023-12-28T01:28:21;16.65;;;9.27;;
55288;SDS011;41154;45.394;5.734;2023-12-28T01:30:46;16.02;;;9.27;;
55288;SDS011;41154;45.394;5.734;2023-12-28T01:33:12;25.45;;;10.63;;
55288;SDS011;41154;45.394;5.734;2023-12-28T01:35:38;22.58;;;10.32;;
55288;SDS011;41154;45.394;5.734;2023-12-28T01:38:03;20.83;;;10.52;;
55288;SDS011;41154;45.394;5.734;2023-12-28T01:40:29;16.73;;;9.60;;
55288;SDS011;41154;45.394;5.734;2023-12-28T01:42:54;13.65;;;6.72;;
55288;SDS011;41154;45.394;5.734;2023-12-28T01:45:20;16.50;;;9.40;;
55288;SDS011;41154;45.394;5.734;2023-12-28T01:47:45;18.73;;;8.75;;
55288;SDS011;41154;45.394;5.734;2023-12-28T01:50:12;16.67;;;7.20;;
55288;SDS011;41154;45.394;5.734;2023-12-28T01:52:38;18.67;;;7.88;;
55288;SDS011;41154;45.394;5.734;2023-12-28T01:55:05;18.58;;;7.65;;
55288;SDS011;41154;45.394;5.734;2023-12-28T01:57:30;13.32;;;7.28;;
55288;SDS011;41154;45.394;5.734;2023-12-28T01:59:56;18.20;;;7.80;;
55288;SDS011;41154;45.394;5.734;2023-12-28T02:02:24;17.10;;;7.97;;
55288;SDS011;41154;45.394;5.734;2023-12-28T02:04:49;18.65;;;7.90;;
55288;SDS011;41154;45.394;5.734;2023-12-28T02:07:15;13.98;;;7.43;;
55288;SDS011;41154;45.394;5.734;2023-12-28T02:09:41;13.23;;;6.38;;
55288;SDS011;41154;45.394;5.734;2023-12-28T02:12:06;14.77;;;7.00;;
55288;SDS011;41154;45.394;5.734;2023-12-28T02:14:32;14.93;;;7.43;;
55288;SDS011;41154;45.394;5.734;2023-12-28T02:21:52;12.38;;;7.72;;
55288;SDS011;41154;45.394;5.734;2023-12-28T02:24:19;14.63;;;7.50;;
55288;SDS011;41154;45.394;5.734;2023-12-28T02:26:44;12.65;;;6.40;;
55288;SDS011;41154;45.394;5.734;2023-12-28T02:29:10;10.85;;;6.45;;
55288;SDS011;41154;45.394;5.734;2023-12-28T02:31:37;9.10;;;5.72;;
55288;SDS011;41154;45.394;5.734;2023-12-28T02:34:05;12.02;;;6.57;;
55288;SDS011;41154;45.394;5.734;2023-12-28T02:36:31;8.68;;;4.40;;
55288;SDS011;41154;45.394;5.734;2023-12-28T02:38:59;13.60;;;5.75;;
55288;SDS011;41154;45.394;5.734;2023-12-28T02:41:27;10.73;;;5.22;;
55288;SDS011;41154;45.394;5.734;2023-12-28T02:43:53;8.18;;;4.03;;
55288;SDS011;41154;45.394;5.734;2023-12-28T02:46:19;8.63;;;5.43;;
55288;SDS011;41154;45.394;5.734;2023-12-28T02:48:44;13.02;;;5.57;;
55288;SDS011;41154;45.394;5.734;2023-12-28T02:51:10;8.57;;;5.13;;
55288;SDS011;41154;45.394;5.734;2023-12-28T02:53:36;8.82;;;5.35;;
55288;SDS011;41154;45.394;5.734;2023-12-28T02:56:01;11.70;;;4.97;;
55288;SDS011;41154;45.394;5.734;2023-12-28T02:58:27;9.98;;;5.82;;
55288;SDS011;41154;45.394;5.734;2023-12-28T03:00:52;12.02;;;6.05;;
55288;SDS011;41154;45.394;5.734;2023-12-28T03:03:18;11.93;;;5.93;;
55288;SDS011;41154;45.394;5.734;2023-12-28T03:05:43;12.40;;;5.75;;
55288;SDS011;41154;45.394;5.734;2023-12-28T03:08:08;9.38;;;4.50;;
55288;SDS011;41154;45.394;5.734;2023-12-28T03:10:34;10.23;;;5.28;;
55288;SDS011;41154;45.394;5.734;2023-12-28T03:12:59;9.57;;;5.22;;
55288;SDS011;41154;45.394;5.734;2023-12-28T03:15:26;10.38;;;5.50;;
55288;SDS011;41154;45.394;5.734;2023-12-28T03:17:51;10.57;;;5.20;;
55288;SDS011;41154;45.394;5.734;2023-12-28T03:20:17;9.35;;;5.20;;
55288;SDS011;41154;45.394;5.734;2023-12-28T03:22:42;13.80;;;5.05;;
55288;SDS011;41154;45.394;5.734;2023-12-28T03:25:08;8.43;;;4.78;;
55288;SDS011;41154;45.394;5.734;2023-12-28T03:27:33;7.25;;;4.70;;
55288;SDS011;41154;45.394;5.734;2023-12-28T03:29:59;10.48;;;5.05;;
55288;SDS011;41154;45.394;5.734;2023-12-28T03:32:24;8.43;;;4.78;;
55288;SDS011;41154;45.394;5.734;2023-12-28T03:34:50;11.73;;;4.75;;
55288;SDS011;41154;45.394;5.734;2023-12-28T03:37:15;8.23;;;4.55;;
55288;SDS011;41154;45.394;5.734;2023-12-28T03:39:41;12.25;;;5.05;;
55288;SDS011;41154;45.394;5.734;2023-12-28T03:42:06;9.98;;;5.38;;
55288;SDS011;41154;45.394;5.734;2023-12-28T03:44:32;9.13;;;5.03;;
55288;SDS011;41154;45.394;5.734;2023-12-28T03:46:57;13.80;;;4.80;;
55288;SDS011;41154;45.394;5.734;2023-12-28T03:49:23;7.50;;;4.13;;
55288;SDS011;41154;45.394;5.734;2023-12-28T03:51:49;8.80;;;4.05;;
55288;SDS011;41154;45.394;5.734;2023-12-28T03:54:18;7.68;;;4.07;;
55288;SDS011;41154;45.394;5.734;2023-12-28T03:56:44;7.40;;;4.10;;
55288;SDS011;41154;45.394;5.734;2023-12-28T03:59:10;8.05;;;4.47;;
55288;SDS011;41154;45.394;5.734;2023-12-28T04:01:36;5.43;;;3.75;;
55288;SDS011;41154;45.394;5.734;2023-12-28T04:04:01;7.70;;;3.92;;
55288;SDS011;41154;45.394;5.734;2023-12-28T04:06:27;9.20;;;4.03;;
55288;SDS011;41154;45.394;5.734;2023-12-28T04:08:52;6.25;;;3.58;;
55288;SDS011;41154;45.394;5.734;2023-12-28T04:11:18;10.00;;;4.28;;
55288;SDS011;41154;45.394;5.734;2023-12-28T04:13:44;10.98;;;4.13;;
55288;SDS011;41154;45.394;5.734;2023-12-28T04:16:15;8.30;;;3.85;;
55288;SDS011;41154;45.394;5.734;2023-12-28T04:18:42;5.88;;;3.58;;
55288;SDS011;41154;45.394;5.734;2023-12-28T04:21:11;6.30;;;3.83;;
55288;SDS011;41154;45.394;5.734;2023-12-28T04:23:37;6.72;;;3.75;;
55288;SDS011;41154;45.394;5.734;2023-12-28T04:26:02;7.10;;;3.75;;
55288;SDS011;41154;45.394;5.734;2023-12-28T04:28:28;7.57;;;3.78;;
55288;SDS011;41154;45.394;5.734;2023-12-28T04:30:54;9.80;;;3.80;;
55288;SDS011;41154;45.394;5.734;2023-12-28T04:33:20;5.82;;;3.75;;
55288;SDS011;41154;45.394;5.734;2023-12-28T04:35:46;8.23;;;3.63;;
55288;SDS011;41154;45.394;5.734;2023-12-28T04:38:12;6.00;;;3.70;;
55288;SDS011;41154;45.394;5.734;2023-12-28T04:40:37;8.32;;;4.10;;
55288;SDS011;41154;45.394;5.734;2023-12-28T04:43:03;6.05;;;3.70;;
55288;SDS011;41154;45.394;5.734;2023-12-28T04:45:28;7.07;;;3.65;;
55288;SDS011;41154;45.394;5.734;2023-12-28T04:47:54;6.30;;;3.85;;
55288;SDS011;41154;45.394;5.734;2023-12-28T04:50:19;8.40;;;3.55;;
55288;SDS011;41154;45.394;5.734;2023-12-28T04:52:45;7.90;;;3.50;;
55288;SDS011;41154;45.394;5.734;2023-12-28T04:55:10;5.07;;;3.22;;
55288;SDS011;41154;45.394;5.734;2023-12-28T04:57:36;6.65;;;3.53;;
55288;SDS011;41154;45.394;5.734;2023-12-28T05:00:02;8.90;;;3.40;;
55288;SDS011;41154;45.394;5.734;2023-12-28T05:02:28;8.95;;;3.28;;
55288;SDS011;41154;45.394;5.734;2023-12-28T05:04:54;10.15;;;2.88;;
55288;SDS011;41154;45.394;5.734;2023-12-28T05:07:19;9.85;;;2.85;;
55288;SDS011;41154;45.394;5.734;2023-12-28T05:09:45;11.07;;;3.58;;
55288;SDS011;41154;45.394;5.734;2023-12-28T05:12:10;4.90;;;3.10;;
55288;SDS011;41154;45.394;5.734;2023-12-28T05:14:36;5.75;;;2.90;;
55288;SDS011;41154;45.394;5.734;2023-12-28T05:17:01;6.78;;;2.88;;
55288;SDS011;41154;45.394;5.734;2023-12-28T05:19:27;4.72;;;3.03;;
55288;SDS011;41154;45.394;5.734;2023-12-28T05:21:52;4.78;;;2.60;;
55288;SDS011;41154;45.394;5.734;2023-12-28T05:24:18;4.68;;;2.90;;
55288;SDS011;41154;45.394;5.734;2023-12-28T05:26:43;4.55;;;3.08;;
55288;SDS011;41154;45.394;5.734;2023-12-28T05:29:09;6.20;;;3.28;;
55288;SDS011;41154;45.394;5.734;2023-12-28T05:31:34;5.63;;;3.53;;
55288;SDS011;41154;45.394;5.734;2023-12-28T05:33:59;5.88;;;3.72;;
55288;SDS011;41154;45.394;5.734;2023-12-28T05:36:25;5.97;;;3.60;;
55288;SDS011;41154;45.394;5.734;2023-12-28T05:38:50;7.72;;;3.80;;
55288;SDS011;41154;45.394;5.734;2023-12-28T05:41:16;4.40;;;3.15;;
55288;SDS011;41154;45.394;5.734;2023-12-28T05:43:42;7.15;;;3.63;;
55288;SDS011;41154;45.394;5.734;2023-12-28T05:46:08;8.23;;;3.90;;
55288;SDS011;41154;45.394;5.734;2023-12-28T05:48:33;8.43;;;4.57;;
55288;SDS011;41154;45.394;5.734;2023-12-28T05:50:58;5.28;;;3.70;;
55288;SDS011;41154;45.394;5.734;2023-12-28T05:53:24;8.35;;;3.90;;
55288;SDS011;41154;45.394;5.734;2023-12-28T05:55:50;6.60;;;4.13;;
55288;SDS011;41154;45.394;5.734;2023-12-28T05:58:15;7.50;;;4.32;;
55288;SDS011;41154;45.394;5.734;2023-12-28T06:00:41;8.88;;;5.40;;
55288;SDS011;41154;45.394;5.734;2023-12-28T06:03:07;10.70;;;5.47;;
55288;SDS011;41154;45.394;5.734;2023-12-28T06:05:33;7.85;;;5.40;;
55288;SDS011;41154;45.394;5.734;2023-12-28T06:07:58;6.93;;;4.78;;
55288;SDS011;41154;45.394;5.734;2023-12-28T06:10:24;11.05;;;4.88;;
55288;SDS011;41154;45.394;5.734;2023-12-28T06:12:49;9.52;;;5.15;;
55288;SDS011;41154;45.394;5.734;2023-12-28T06:15:15;7.15;;;4.50;;
55288;SDS011;41154;45.394;5.734;2023-12-28T06:17:41;9.05;;;4.80;;
55288;SDS011;41154;45.394;5.734;2023-12-28T06:20:06;8.35;;;4.20;;
55288;SDS011;41154;45.394;5.734;2023-12-28T06:22:33;7.30;;;4.07;;
55288;SDS011;41154;45.394;5.734;2023-12-28T06:24:59;6.10;;;3.85;;
55288;SDS011;41154;45.394;5.734;2023-12-28T06:27:24;6.25;;;3.65;;
55288;SDS011;41154;45.394;5.734;2023-12-28T06:29:50;6.95;;;4.22;;
55288;SDS011;41154;45.394;5.734;2023-12-28T06:32:16;8.02;;;3.63;;
55288;SDS011;41154;45.394;5.734;2023-12-28T06:34:41;6.45;;;3.88;;
55288;SDS011;41154;45.394;5.734;2023-12-28T06:37:06;16.65;;;7.47;;
55288;SDS011;41154;45.394;5.734;2023-12-28T06:39:32;13.93;;;8.20;;
55288;SDS011;41154;45.394;5.734;2023-12-28T06:41:57;16.85;;;9.13;;
55288;SDS011;41154;45.394;5.734;2023-12-28T06:44:23;19.05;;;10.43;;
55288;SDS011;41154;45.394;5.734;2023-12-28T06:46:48;15.60;;;8.45;;
55288;SDS011;41154;45.394;5.734;2023-12-28T06:49:14;15.23;;;7.93;;
55288;SDS011;41154;45.394;5.734;2023-12-28T06:51:39;13.52;;;8.02;;
55288;SDS011;41154;45.394;5.734;2023-12-28T06:54:05;18.10;;;8.40;;
55288;SDS011;41154;45.394;5.734;2023-12-28T06:56:30;12.40;;;7.45;;
55288;SDS011;41154;45.394;5.734;2023-12-28T06:58:56;15.73;;;7.10;;
55288;SDS011;41154;45.394;5.734;2023-12-28T07:01:21;16.17;;;7.63;;
55288;SDS011;41154;45.394;5.734;2023-12-28T07:03:47;13.05;;;7.18;;
55288;SDS011;41154;45.394;5.734;2023-12-28T07:06:15;15.93;;;7.63;;
55288;SDS011;41154;45.394;5.734;2023-12-28T07:08:41;15.82;;;9.20;;
55288;SDS011;41154;45.394;5.734;2023-12-28T07:11:09;13.35;;;8.98;;
55288;SDS011;41154;45.394;5.734;2023-12-28T07:13:34;14.40;;;7.55;;
55288;SDS011;41154;45.394;5.734;2023-12-28T07:16:00;14.75;;;8.38;;
55288;SDS011;41154;45.394;5.734;2023-12-28T07:18:25;16.20;;;8.80;;
55288;SDS011;41154;45.394;5.734;2023-12-28T07:20:51;13.50;;;7.93;;
55288;SDS011;41154;45.394;5.734;2023-12-28T07:23:16;13.15;;;8.18;;
55288;SDS011;41154;45.394;5.734;2023-12-28T07:25:42;18.25;;;9.60;;
55288;SDS011;41154;45.394;5.734;2023-12-28T07:28:08;15.07;;;8.80;;
55288;SDS011;41154;45.394;5.734;2023-12-28T07:30:33;12.95;;;7.65;;
55288;SDS011;41154;45.394;5.734;2023-12-28T07:32:59;15.73;;;7.97;;
55288;SDS011;41154;45.394;5.734;2023-12-28T07:35:24;25.83;;;8.68;;
55288;SDS011;41154;45.394;5.734;2023-12-28T07:37:50;13.13;;;7.50;;
55288;SDS011;41154;45.394;5.734;2023-12-28T07:40:15;18.77;;;8.90;;
55288;SDS011;41154;45.394;5.734;2023-12-28T07:42:41;15.13;;;8.25;;
55288;SDS011;41154;45.394;5.734;2023-12-28T07:45:06;21.05;;;10.00;;
55288;SDS011;41154;45.394;5.734;2023-12-28T07:47:32;15.98;;;8.82;;
55288;SDS011;41154;45.394;5.734;2023-12-28T07:49:58;16.17;;;8.65;;
55288;SDS011;41154;45.394;5.734;2023-12-28T07:52:24;13.63;;;8.27;;
55288;SDS011;41154;45.394;5.734;2023-12-28T07:54:49;14.80;;;9.32;;
55288;SDS011;41154;45.394;5.734;2023-12-28T07:57:15;15.60;;;9.10;;
55288;SDS011;41154;45.394;5.734;2023-12-28T07:59:40;18.70;;;9.57;;
55288;SDS011;41154;45.394;5.734;2023-12-28T08:02:06;19.90;;;9.77;;
55288;SDS011;41154;45.394;5.734;2023-12-28T08:04:33;17.17;;;10.05;;
55288;SDS011;41154;45.394;5.734;2023-12-28T08:06:59;19.13;;;11.25;;
55288;SDS011;41154;45.394;5.734;2023-12-28T08:09:24;25.13;;;12.32;;
55288;SDS011;41154;45.394;5.734;2023-12-28T08:11:49;31.85;;;14.68;;
55288;SDS011;41154;45.394;5.734;2023-12-28T08:14:15;21.08;;;12.63;;
55288;SDS011;41154;45.394;5.734;2023-12-28T08:16:40;21.08;;;13.02;;
55288;SDS011;41154;45.394;5.734;2023-12-28T08:19:06;22.60;;;12.60;;
55288;SDS011;41154;45.394;5.734;2023-12-28T08:21:31;25.88;;;13.88;;
55288;SDS011;41154;45.394;5.734;2023-12-28T08:23:57;24.55;;;13.07;;
55288;SDS011;41154;45.394;5.734;2023-12-28T08:26:22;25.52;;;15.15;;
55288;SDS011;41154;45.394;5.734;2023-12-28T08:28:50;26.83;;;14.77;;
55288;SDS011;41154;45.394;5.734;2023-12-28T08:31:15;24.10;;;13.50;;
55288;SDS011;41154;45.394;5.734;2023-12-28T08:33:41;27.15;;;14.90;;
55288;SDS011;41154;45.394;5.734;2023-12-28T08:36:07;26.30;;;14.45;;
55288;SDS011;41154;45.394;5.734;2023-12-28T08:38:33;25.38;;;14.73;;
55288;SDS011;41154;45.394;5.734;2023-12-28T08:40:58;25.17;;;14.60;;
55288;SDS011;41154;45.394;5.734;2023-12-28T08:43:24;28.50;;;15.50;;
55288;SDS011;41154;45.394;5.734;2023-12-28T08:45:49;26.70;;;16.00;;
55288;SDS011;41154;45.394;5.734;2023-12-28T08:48:14;31.30;;;17.75;;
55288;SDS011;41154;45.394;5.734;2023-12-28T08:50:40;30.48;;;16.60;;
55288;SDS011;41154;45.394;5.734;2023-12-28T08:53:05;28.52;;;14.95;;
55288;SDS011;41154;45.394;5.734;2023-12-28T08:55:31;34.15;;;16.02;;
55288;SDS011;41154;45.394;5.734;2023-12-28T08:57:58;30.90;;;15.68;;
55288;SDS011;41154;45.394;5.734;2023-12-28T09:00:24;26.25;;;14.02;;
55288;SDS011;41154;45.394;5.734;2023-12-28T09:02:49;29.83;;;16.30;;
55288;SDS011;41154;45.394;5.734;2023-12-28T09:05:14;29.40;;;17.55;;
55288;SDS011;41154;45.394;5.734;2023-12-28T09:07:40;25.23;;;15.20;;
55288;SDS011;41154;45.394;5.734;2023-12-28T09:10:09;28.80;;;16.23;;
55288;SDS011;41154;45.394;5.734;2023-12-28T09:12:35;33.22;;;17.17;;
55288;SDS011;41154;45.394;5.734;2023-12-28T09:15:00;38.17;;;20.33;;
55288;SDS011;41154;45.394;5.734;2023-12-28T09:17:26;31.88;;;18.08;;
55288;SDS011;41154;45.394;5.734;2023-12-28T09:19:51;33.85;;;19.08;;
55288;SDS011;41154;45.394;5.734;2023-12-28T09:22:17;30.13;;;18.92;;
55288;SDS011;41154;45.394;5.734;2023-12-28T09:24:42;29.15;;;18.42;;
55288;SDS011;41154;45.394;5.734;2023-12-28T09:27:08;35.05;;;19.65;;
55288;SDS011;41154;45.394;5.734;2023-12-28T09:29:34;23.38;;;15.13;;
55288;SDS011;41154;45.394;5.734;2023-12-28T09:32:00;19.08;;;11.73;;
55288;SDS011;41154;45.394;5.734;2023-12-28T09:34:25;27.98;;;14.90;;
55288;SDS011;41154;45.394;5.734;2023-12-28T09:36:51;21.40;;;12.02;;
55288;SDS011;41154;45.394;5.734;2023-12-28T09:39:16;20.65;;;12.13;;
55288;SDS011;41154;45.394;5.734;2023-12-28T09:41:43;15.45;;;9.45;;
55288;SDS011;41154;45.394;5.734;2023-12-28T09:44:12;21.15;;;12.23;;
55288;SDS011;41154;45.394;5.734;2023-12-28T09:46:41;20.58;;;12.00;;
55288;SDS011;41154;45.394;5.734;2023-12-28T09:49:07;29.38;;;16.13;;
55288;SDS011;41154;45.394;5.734;2023-12-28T09:51:32;22.45;;;13.88;;
55288;SDS011;41154;45.394;5.734;2023-12-28T09:53:58;22.80;;;14.10;;
55288;SDS011;41154;45.394;5.734;2023-12-28T09:56:23;19.73;;;12.95;;
55288;SDS011;41154;45.394;5.734;2023-12-28T09:58:50;17.83;;;11.00;;
55288;SDS011;41154;45.394;5.734;2023-12-28T10:01:17;14.00;;;9.27;;
55288;SDS011;41154;45.394;5.734;2023-12-28T10:03:42;20.92;;;11.48;;
55288;SDS011;41154;45.394;5.734;2023-12-28T10:06:08;22.40;;;10.82;;
55288;SDS011;41154;45.394;5.734;2023-12-28T10:08:33;12.55;;;7.93;;
55288;SDS011;41154;45.394;5.734;2023-12-28T10:11:00;15.25;;;8.02;;
55288;SDS011;41154;45.394;5.734;2023-12-28T10:13:26;10.45;;;7.38;;
55288;SDS011;41154;45.394;5.734;2023-12-28T10:15:51;10.85;;;6.55;;
55288;SDS011;41154;45.394;5.734;2023-12-28T10:18:17;11.82;;;8.02;;
55288;SDS011;41154;45.394;5.734;2023-12-28T10:20:48;12.60;;;8.18;;
55288;SDS011;41154;45.394;5.734;2023-12-28T10:23:14;13.43;;;8.48;;
55288;SDS011;41154;45.394;5.734;2023-12-28T10:25:39;15.30;;;8.65;;
55288;SDS011;41154;45.394;5.734;2023-12-28T10:28:05;13.70;;;8.85;;
55288;SDS011;41154;45.394;5.734;2023-12-28T10:30:33;16.58;;;9.40;;
55288;SDS011;41154;45.394;5.734;2023-12-28T10:32:59;11.50;;;8.20;;
55288;SDS011;41154;45.394;5.734;2023-12-28T10:35:24;13.25;;;8.52;;
55288;SDS011;41154;45.394;5.734;2023-12-28T10:37:52;17.48;;;11.23;;
55288;SDS011;41154;45.394;5.734;2023-12-28T10:40:18;16.48;;;9.30;;
55288;SDS011;41154;45.394;5.734;2023-12-28T10:45:17;16.30;;;9.05;;
55288;SDS011;41154;45.394;5.734;2023-12-28T10:47:47;16.30;;;10.25;;
55288;SDS011;41154;45.394;5.734;2023-12-28T10:50:15;11.02;;;7.03;;
55288;SDS011;41154;45.394;5.734;2023-12-28T10:52:41;12.68;;;8.10;;
55288;SDS011;41154;45.394;5.734;2023-12-28T10:55:14;15.57;;;8.80;;
55288;SDS011;41154;45.394;5.734;2023-12-28T10:57:53;17.73;;;11.10;;
55288;SDS011;41154;45.394;5.734;2023-12-28T11:00:25;17.20;;;11.77;;
55288;SDS011;41154;45.394;5.734;2023-12-28T11:02:52;20.92;;;12.68;;
55288;SDS011;41154;45.394;5.734;2023-12-28T11:05:19;16.63;;;11.13;;
55288;SDS011;41154;45.394;5.734;2023-12-28T11:07:45;11.18;;;7.35;;
55288;SDS011;41154;45.394;5.734;2023-12-28T11:10:13;15.57;;;9.15;;
55288;SDS011;41154;45.394;5.734;2023-12-28T11:12:39;13.38;;;8.27;;
55288;SDS011;41154;45.394;5.734;2023-12-28T11:15:05;17.17;;;9.73;;
55288;SDS011;41154;45.394;5.734;2023-12-28T11:17:30;15.18;;;9.60;;
55288;SDS011;41154;45.394;5.734;2023-12-28T11:19:57;16.90;;;9.55;;
55288;SDS011;41154;45.394;5.734;2023-12-28T11:22:23;18.33;;;11.25;;
55288;SDS011;41154;45.394;5.734;2023-12-28T11:24:48;14.63;;;9.63;;
55288;SDS011;41154;45.394;5.734;2023-12-28T11:27:14;15.23;;;10.00;;
55288;SDS011;41154;45.394;5.734;2023-12-28T11:29:42;15.32;;;9.52;;
55288;SDS011;41154;45.394;5.734;2023-12-28T11:32:09;14.98;;;10.07;;
55288;SDS011;41154;45.394;5.734;2023-12-28T11:34:35;18.92;;;12.40;;
55288;SDS011;41154;45.394;5.734;2023-12-28T11:37:04;13.30;;;9.48;;
55288;SDS011;41154;45.394;5.734;2023-12-28T11:39:32;14.60;;;9.35;;
55288;SDS011;41154;45.394;5.734;2023-12-28T11:44:28;11.82;;;8.27;;
55288;SDS011;41154;45.394;5.734;2023-12-28T11:46:54;13.73;;;7.63;;
55288;SDS011;41154;45.394;5.734;2023-12-28T11:49:24;12.85;;;7.75;;
55288;SDS011;41154;45.394;5.734;2023-12-28T11:51:53;12.27;;;7.20;;
55288;SDS011;41154;45.394;5.734;2023-12-28T11:54:19;10.35;;;7.30;;
55288;SDS011;41154;45.394;5.734;2023-12-28T11:56:45;12.32;;;8.00;;
55288;SDS011;41154;45.394;5.734;2023-12-28T11:59:10;9.75;;;6.38;;
55288;SDS011;41154;45.394;5.734;2023-12-28T12:01:36;9.18;;;7.10;;
55288;SDS011;41154;45.394;5.734;2023-12-28T12:04:01;13.55;;;6.53;;
55288;SDS011;41154;45.394;5.734;2023-12-28T12:06:27;14.32;;;8.43;;
55288;SDS011;41154;45.394;5.734;2023-12-28T12:08:54;11.98;;;7.10;;
55288;SDS011;41154;45.394;5.734;2023-12-28T12:11:19;9.27;;;7.28;;
55288;SDS011;41154;45.394;5.734;2023-12-28T12:13:45;10.85;;;7.43;;
55288;SDS011;41154;45.394;5.734;2023-12-28T12:16:13;15.00;;;8.73;;
55288;SDS011;41154;45.394;5.734;2023-12-28T12:18:38;14.95;;;7.43;;
55288;SDS011;41154;45.394;5.734;2023-12-28T12:21:04;9.80;;;6.30;;
55288;SDS011;41154;45.394;5.734;2023-12-28T12:23:31;9.90;;;6.90;;
55288;SDS011;41154;45.394;5.734;2023-12-28T12:25:57;9.98;;;5.90;;
55288;SDS011;41154;45.394;5.734;2023-12-28T12:28:22;9.00;;;5.97;;
55288;SDS011;41154;45.394;5.734;2023-12-28T12:30:52;10.18;;;6.10;;
55288;SDS011;41154;45.394;5.734;2023-12-28T12:33:18;9.80;;;5.90;;
55288;SDS011;41154;45.394;5.734;2023-12-28T12:35:44;19.27;;;15.32;;
55288;SDS011;41154;45.394;5.734;2023-12-28T12:38:09;16.30;;;11.43;;
55288;SDS011;41154;45.394;5.734;2023-12-28T12:40:36;10.25;;;5.85;;
55288;SDS011;41154;45.394;5.734;2023-12-28T12:43:02;8.52;;;5.93;;
55288;SDS011;41154;45.394;5.734;2023-12-28T12:45:27;7.93;;;4.47;;
55288;SDS011;41154;45.394;5.734;2023-12-28T12:47:53;4.60;;;3.45;;
55288;SDS011;41154;45.394;5.734;2023-12-28T12:50:19;5.72;;;3.65;;
55288;SDS011;41154;45.394;5.734;2023-12-28T12:52:44;6.88;;;3.30;;
55288;SDS011;41154;45.394;5.734;2023-12-28T12:55:11;6.70;;;4.93;;
55288;SDS011;41154;45.394;5.734;2023-12-28T12:57:37;3.97;;;3.17;;
55288;SDS011;41154;45.394;5.734;2023-12-28T13:00:04;5.07;;;3.65;;
55288;SDS011;41154;45.394;5.734;2023-12-28T13:02:33;5.55;;;3.33;;
55288;SDS011;41154;45.394;5.734;2023-12-28T13:04:59;5.38;;;3.22;;
55288;SDS011;41154;45.394;5.734;2023-12-28T13:07:24;5.03;;;3.40;;
55288;SDS011;41154;45.394;5.734;2023-12-28T13:09:50;6.45;;;3.40;;
55288;SDS011;41154;45.394;5.734;2023-12-28T13:12:16;7.45;;;4.45;;
55288;SDS011;41154;45.394;5.734;2023-12-28T13:14:42;5.72;;;3.33;;
55288;SDS011;41154;45.394;5.734;2023-12-28T13:17:10;5.40;;;2.90;;
55288;SDS011;41154;45.394;5.734;2023-12-28T13:19:35;5.60;;;3.45;;
55288;SDS011;41154;45.394;5.734;2023-12-28T13:22:01;6.68;;;3.25;;
55288;SDS011;41154;45.394;5.734;2023-12-28T13:24:26;4.45;;;3.30;;
55288;SDS011;41154;45.394;5.734;2023-12-28T13:26:52;5.90;;;3.40;;
55288;SDS011;41154;45.394;5.734;2023-12-28T13:29:17;5.15;;;3.17;;
55288;SDS011;41154;45.394;5.734;2023-12-28T13:31:43;4.68;;;3.58;;
55288;SDS011;41154;45.394;5.734;2023-12-28T13:34:10;8.85;;;4.30;;
55288;SDS011;41154;45.394;5.734;2023-12-28T13:36:35;6.72;;;3.53;;
55288;SDS011;41154;45.394;5.734;2023-12-28T13:39:01;7.20;;;4.40;;
55288;SDS011;41154;45.394;5.734;2023-12-28T13:41:26;6.90;;;4.43;;
55288;SDS011;41154;45.394;5.734;2023-12-28T13:43:52;8.45;;;4.28;;
55288;SDS011;41154;45.394;5.734;2023-12-28T13:46:25;11.43;;;5.78;;
55288;SDS011;41154;45.394;5.734;2023-12-28T13:48:50;8.15;;;4.75;;
55288;SDS011;41154;45.394;5.734;2023-12-28T13:51:16;7.07;;;4.80;;
55288;SDS011;41154;45.394;5.734;2023-12-28T13:53:42;6.15;;;4.65;;
55288;SDS011;41154;45.394;5.734;2023-12-28T13:56:07;6.80;;;5.60;;
55288;SDS011;41154;45.394;5.734;2023-12-28T13:58:35;6.78;;;5.72;;
55288;SDS011;41154;45.394;5.734;2023-12-28T14:01:01;8.90;;;6.10;;
55288;SDS011;41154;45.394;5.734;2023-12-28T14:03:28;8.43;;;6.22;;
55288;SDS011;41154;45.394;5.734;2023-12-28T14:05:53;23.60;;;11.90;;
55288;SDS011;41154;45.394;5.734;2023-12-28T14:08:18;14.48;;;7.63;;
55288;SDS011;41154;45.394;5.734;2023-12-28T14:10:44;10.88;;;6.03;;
55288;SDS011;41154;45.394;5.734;2023-12-28T14:13:09;8.30;;;4.95;;
55288;SDS011;41154;45.394;5.734;2023-12-28T14:15:35;12.45;;;7.80;;
55288;SDS011;41154;45.394;5.734;2023-12-28T14:18:00;12.55;;;6.57;;
55288;SDS011;41154;45.394;5.734;2023-12-28T14:20:28;8.55;;;5.90;;
55288;SDS011;41154;45.394;5.734;2023-12-28T14:22:54;9.80;;;6.10;;
55288;SDS011;41154;45.394;5.734;2023-12-28T14:25:20;9.48;;;5.40;;
55288;SDS011;41154;45.394;5.734;2023-12-28T14:27:45;8.13;;;5.57;;
55288;SDS011;41154;45.394;5.734;2023-12-28T14:30:11;7.28;;;5.35;;
55288;SDS011;41154;45.394;5.734;2023-12-28T14:32:37;7.65;;;4.95;;
55288;SDS011;41154;45.394;5.734;2023-12-28T14:35:03;10.52;;;5.10;;
55288;SDS011;41154;45.394;5.734;2023-12-28T14:37:29;8.23;;;4.90;;